createdAt,value
2023-04-28T00:02:51.083Z,49.35
2023-04-28T00:05:53.403Z,49.34
2023-04-28T00:08:54.976Z,49.21
2023-04-28T00:11:56.566Z,49.28
2023-04-28T00:14:58.122Z,49.42
2023-04-28T00:17:59.645Z,49.43
2023-04-28T00:21:01.992Z,49.44
2023-04-28T00:24:03.785Z,49.16
2023-04-28T00:27:05.515Z,49.25
2023-04-28T00:30:07.954Z,49.33
2023-04-28T00:33:09.574Z,49.39
2023-04-28T00:36:11.657Z,49.58
2023-04-28T00:39:13.191Z,49.32
2023-04-28T00:42:15.926Z,49.27
2023-04-28T00:45:17.474Z,49.47
2023-04-28T00:48:19.593Z,49.31
2023-04-28T00:51:21.599Z,49.42
2023-04-28T00:54:23.441Z,49.61
2023-04-28T00:57:25.053Z,49.38
2023-04-28T01:00:26.833Z,49.70
2023-04-28T01:03:28.797Z,49.75
2023-04-28T01:06:31.984Z,49.42
2023-04-28T01:09:33.515Z,49.56
2023-04-28T01:12:35.071Z,49.27
2023-04-28T01:15:36.793Z,49.83
2023-04-28T01:18:41.677Z,49.80
2023-04-28T01:21:43.353Z,49.88
2023-04-28T01:24:45.113Z,49.57
2023-04-28T01:27:46.746Z,49.67
2023-04-28T01:30:48.353Z,49.90
2023-04-28T01:33:49.863Z,49.87
2023-04-28T01:36:51.907Z,49.94
2023-04-28T01:39:53.495Z,49.79
2023-04-28T01:42:55.151Z,49.82
2023-04-28T01:45:56.808Z,50.12
2023-04-28T01:48:58.444Z,49.91
2023-04-28T01:51:59.984Z,49.93
2023-04-28T01:55:01.650Z,49.80
2023-04-28T01:58:03.181Z,49.86
2023-04-28T02:01:05.127Z,49.96
2023-04-28T02:04:06.903Z,50.08
2023-04-28T02:07:08.502Z,49.85
2023-04-28T02:10:10.244Z,50.22
2023-04-28T02:13:12.257Z,50.29
2023-04-28T02:16:13.905Z,50.00
2023-04-28T02:19:16.000Z,50.20
2023-04-28T02:22:17.523Z,50.03
2023-04-28T02:25:19.206Z,50.08
2023-04-28T02:28:20.759Z,50.24
2023-04-28T02:31:22.486Z,50.14
2023-04-28T02:34:24.086Z,50.37
2023-04-28T02:37:26.277Z,50.33
2023-04-28T02:40:28.333Z,50.44
2023-04-28T02:43:30.440Z,50.44
2023-04-28T02:46:32.045Z,50.23
2023-04-28T02:49:33.593Z,50.46
2023-04-28T02:52:35.480Z,50.61
2023-04-28T02:55:37.110Z,50.41
2023-04-28T02:58:38.851Z,50.40
2023-04-28T03:01:40.483Z,50.16
2023-04-28T03:04:42.184Z,50.20
2023-04-28T03:07:43.798Z,50.57
2023-04-28T03:10:45.455Z,50.56
2023-04-28T03:13:47.035Z,50.39
2023-04-28T03:16:48.634Z,50.26
2023-04-28T03:19:50.234Z,50.37
2023-04-28T03:22:51.729Z,50.50
2023-04-28T03:25:53.403Z,50.52
2023-04-28T03:28:55.688Z,50.81
2023-04-28T03:31:57.320Z,50.52
2023-04-28T03:34:58.891Z,50.72
2023-04-28T03:38:00.480Z,50.45
2023-04-28T03:41:02.095Z,50.68
2023-04-28T03:44:03.702Z,50.66
2023-04-28T03:47:05.804Z,50.55
2023-04-28T03:50:08.004Z,50.50
2023-04-28T03:53:09.562Z,51.00
2023-04-28T03:56:11.193Z,50.82
2023-04-28T03:59:13.139Z,50.74
2023-04-28T04:02:14.726Z,50.67
2023-04-28T04:05:16.526Z,50.53
2023-04-28T04:08:18.177Z,50.73
2023-04-28T04:11:21.330Z,50.81
2023-04-28T04:14:22.898Z,50.77
2023-04-28T04:17:24.480Z,50.77
2023-04-28T04:20:26.199Z,50.68
2023-04-28T04:23:27.917Z,50.97
2023-04-28T04:26:29.525Z,51.00
2023-04-28T04:29:31.721Z,50.98
2023-04-28T04:32:33.661Z,50.99
2023-04-28T04:35:35.411Z,50.72
2023-04-28T04:38:37.258Z,50.72
2023-04-28T04:41:39.086Z,50.79
2023-04-28T04:44:40.681Z,50.82
2023-04-28T04:47:42.278Z,50.87
2023-04-28T04:50:44.529Z,50.90
2023-04-28T04:53:46.076Z,50.86
2023-04-28T04:56:47.752Z,50.81
2023-04-28T04:59:49.359Z,50.85
2023-04-28T05:02:51.303Z,50.88
2023-04-28T05:05:52.990Z,50.81
2023-04-28T05:08:56.556Z,50.56
2023-04-28T05:11:58.243Z,50.45
2023-04-28T05:14:59.799Z,50.78
2023-04-28T05:18:06.492Z,50.54
2023-04-28T05:21:08.208Z,50.81
2023-04-28T05:24:09.879Z,50.59
2023-04-28T05:27:11.416Z,50.55
2023-04-28T05:30:13.144Z,50.72
2023-04-28T05:33:14.986Z,50.78
2023-04-28T05:36:17.157Z,50.40
2023-04-28T05:39:18.679Z,50.72
2023-04-28T05:42:20.224Z,50.56
2023-04-28T05:45:22.176Z,50.50
2023-04-28T05:48:23.842Z,50.65
2023-04-28T05:51:25.429Z,50.66
2023-04-28T05:54:27.131Z,50.77
2023-04-28T05:57:30.532Z,50.41
2023-04-28T06:00:35.702Z,50.63
2023-04-28T06:03:37.771Z,50.34
2023-04-28T06:06:39.517Z,50.58
2023-04-28T06:09:41.119Z,50.41
2023-04-28T06:12:42.785Z,50.50
2023-04-28T06:15:44.564Z,50.81
2023-04-28T06:18:47.756Z,50.86
2023-04-28T06:21:53.213Z,50.59
2023-04-28T06:24:54.733Z,50.48
2023-04-28T06:27:56.386Z,50.61
2023-04-28T06:30:59.882Z,50.39
2023-04-28T06:34:01.541Z,50.40
2023-04-28T06:37:03.236Z,50.45
2023-04-28T06:40:05.212Z,50.53
2023-04-28T06:43:06.924Z,50.56
2023-04-28T06:46:08.644Z,50.47
2023-04-28T06:49:10.363Z,50.45
2023-04-28T06:52:11.936Z,50.42
2023-04-28T06:55:16.060Z,50.32
2023-04-28T06:58:17.803Z,50.40
2023-04-28T07:01:19.453Z,50.36
2023-04-28T07:04:21.440Z,50.26
2023-04-28T07:07:23.327Z,50.34
2023-04-28T07:10:24.927Z,50.28
2023-04-28T07:13:26.474Z,50.30
2023-04-28T07:16:28.408Z,50.07
2023-04-28T07:19:30.051Z,50.10
2023-04-28T07:22:31.572Z,50.04
2023-04-28T07:25:33.301Z,50.07
2023-04-28T07:28:35.062Z,49.97
2023-04-28T07:31:36.820Z,49.90
2023-04-28T07:34:38.435Z,50.14
2023-04-28T07:37:40.124Z,50.00
2023-04-28T07:40:43.802Z,49.83
2023-04-28T07:43:45.386Z,49.92
2023-04-28T07:46:46.953Z,49.80
2023-04-28T07:49:48.564Z,49.71
2023-04-28T07:52:50.156Z,49.74
2023-04-28T07:55:51.749Z,49.84
2023-04-28T07:58:53.419Z,49.35
2023-04-28T08:01:55.020Z,49.56
2023-04-28T08:04:56.836Z,49.60
2023-04-28T08:07:59.419Z,49.67
2023-04-28T08:11:01.913Z,49.59
2023-04-28T08:14:03.700Z,49.77
2023-04-28T08:17:05.501Z,49.59
2023-04-28T08:20:07.678Z,49.43
2023-04-28T08:23:09.893Z,49.50
2023-04-28T08:26:11.478Z,49.37
2023-04-28T08:29:13.078Z,49.38
2023-04-28T08:32:14.652Z,49.60
2023-04-28T08:35:16.202Z,49.38
2023-04-28T08:38:18.348Z,49.22
2023-04-28T08:41:19.963Z,49.35
2023-04-28T08:44:23.593Z,49.21
2023-04-28T08:47:41.330Z,49.19
2023-04-28T08:50:44.661Z,49.11
2023-04-28T08:56:57.178Z,49.25
2023-04-28T08:59:59.179Z,49.11
2023-04-28T09:03:00.831Z,49.03
2023-04-28T09:06:02.588Z,49.03
2023-04-28T09:09:23.115Z,49.03
2023-04-28T09:12:37.098Z,49.08
2023-04-28T09:15:42.933Z,48.91
2023-04-28T09:18:57.826Z,48.89
2023-04-28T09:22:02.159Z,48.76
2023-04-28T09:25:12.893Z,48.84
2023-04-28T09:28:23.640Z,48.56
2023-04-28T09:31:28.141Z,48.71
2023-04-28T09:34:45.428Z,48.66
2023-04-28T09:37:47.024Z,48.55
2023-04-28T09:41:02.538Z,48.56
2023-04-28T09:44:19.270Z,48.57
2023-04-28T09:47:22.454Z,48.56
2023-04-28T09:50:24.064Z,48.50
2023-04-28T09:53:26.908Z,48.56
2023-04-28T09:56:30.204Z,48.55
2023-04-28T09:59:33.024Z,48.53
2023-04-28T10:05:41.711Z,48.50
2023-04-28T10:08:45.257Z,48.44
2023-04-28T10:11:47.306Z,48.46
2023-04-28T10:14:56.534Z,48.53
2023-04-28T10:17:59.828Z,48.48
2023-04-28T10:21:03.939Z,48.55
2023-04-28T10:24:08.675Z,48.43
2023-04-28T10:27:10.522Z,48.41
2023-04-28T10:30:26.575Z,48.39
2023-04-28T10:33:29.971Z,48.29
2023-04-28T10:36:52.377Z,48.35
2023-04-28T10:40:31.726Z,48.29
2023-04-28T10:43:37.595Z,48.41
2023-04-28T10:47:08.127Z,48.29
2023-04-28T10:50:11.340Z,48.52
2023-04-28T10:53:13.103Z,48.25
2023-04-28T10:56:18.957Z,48.23
2023-04-28T10:59:30.292Z,48.18
2023-04-28T11:02:42.601Z,48.16
2023-04-28T11:06:25.787Z,48.28
2023-04-28T11:09:33.422Z,48.14
2023-04-28T11:12:35.011Z,48.20
2023-04-28T11:15:37.062Z,48.18
2023-04-28T11:18:55.391Z,48.12
2023-04-28T11:21:59.448Z,48.15
2023-04-28T11:25:02.845Z,48.02
2023-04-28T11:28:06.985Z,48.04
2023-04-28T11:31:24.090Z,48.13
2023-04-28T11:34:25.896Z,48.04
2023-04-28T11:37:27.634Z,48.11
2023-04-28T11:40:29.312Z,48.03
2023-04-28T11:43:43.715Z,48.06
2023-04-28T11:46:56.367Z,48.04
2023-04-28T11:49:58.856Z,48.10
2023-04-28T11:53:00.456Z,48.18
2023-04-28T11:56:08.234Z,48.04
2023-04-28T11:59:12.164Z,48.14
2023-04-28T12:02:13.914Z,48.03
2023-04-28T12:05:15.702Z,48.05
2023-04-28T12:08:28.745Z,48.14
2023-04-28T12:11:31.127Z,48.09
2023-04-28T12:14:53.232Z,47.98
2023-04-28T12:17:54.828Z,47.98
2023-04-28T12:20:56.498Z,48.05
2023-04-28T12:23:58.019Z,48.08
2023-04-28T12:27:21.738Z,48.01
2023-04-28T12:30:23.368Z,48.00
2023-04-28T12:33:27.382Z,47.97
2023-04-28T12:36:29.565Z,48.03
2023-04-28T12:39:32.399Z,47.95
2023-04-28T12:42:34.719Z,48.10
2023-04-28T12:45:38.708Z,47.79
2023-04-28T12:48:40.514Z,47.94
2023-04-28T12:51:42.055Z,47.89
2023-04-28T12:54:47.248Z,47.83
2023-04-28T12:57:48.970Z,47.77
2023-04-28T13:00:50.577Z,47.82
2023-04-28T13:03:53.765Z,47.93
2023-04-28T13:06:55.684Z,47.93
2023-04-28T13:09:58.484Z,47.75
2023-04-28T13:13:00.390Z,47.88
2023-04-28T13:16:01.972Z,47.76
2023-04-28T13:19:04.477Z,47.54
2023-04-28T13:22:06.823Z,47.76
2023-04-28T13:25:09.668Z,47.79
2023-04-28T13:28:12.802Z,47.67
2023-04-28T13:31:14.919Z,47.61
2023-04-28T13:34:18.062Z,47.70
2023-04-28T13:37:19.712Z,47.40
2023-04-28T13:40:21.708Z,47.57
2023-04-28T13:43:23.317Z,47.54
2023-04-28T13:46:25.124Z,47.74
2023-04-28T13:49:26.758Z,47.64
2023-04-28T13:52:28.303Z,47.52
2023-04-28T13:55:30.393Z,47.68
2023-04-28T13:58:32.423Z,47.50
2023-04-28T14:01:34.038Z,47.44
2023-04-28T14:04:35.924Z,47.66
2023-04-28T14:07:37.930Z,47.67
2023-04-28T14:10:39.520Z,47.61
2023-04-28T14:13:41.132Z,47.60
2023-04-28T14:16:42.760Z,47.87
2023-04-28T14:19:44.598Z,47.83
2023-04-28T14:22:46.264Z,47.84
2023-04-28T14:25:48.238Z,47.95
2023-04-28T14:28:49.847Z,48.00
2023-04-28T14:31:51.632Z,48.16
2023-04-28T14:34:53.852Z,48.23
2023-04-28T14:37:55.602Z,48.28
2023-04-28T14:40:57.481Z,48.43
2023-04-28T14:43:59.145Z,48.46
2023-04-28T14:47:01.853Z,48.43
2023-04-28T14:50:03.784Z,48.43
2023-04-28T14:53:07.163Z,48.57
2023-04-28T14:59:18.829Z,48.54
2023-04-28T15:02:27.869Z,48.51
2023-04-28T15:05:29.815Z,48.50
2023-04-28T15:08:32.893Z,48.73
2023-04-28T15:11:34.514Z,48.63
2023-04-28T15:14:36.594Z,48.82
2023-04-28T15:17:38.440Z,48.64
2023-04-28T15:20:40.123Z,48.65
2023-04-28T15:23:41.788Z,48.92
2023-04-28T15:26:43.344Z,48.85
2023-04-28T15:29:45.286Z,48.90
2023-04-28T15:32:48.670Z,48.82
2023-04-28T15:35:50.332Z,48.96
2023-04-28T15:38:52.142Z,49.08
2023-04-28T15:41:53.757Z,49.10
2023-04-28T15:47:57.950Z,49.17
2023-04-28T15:50:59.488Z,49.38
2023-04-28T15:54:01.035Z,49.51
2023-04-28T15:57:03.509Z,49.38
2023-04-28T16:00:06.894Z,49.43
2023-04-28T16:03:08.631Z,49.36
2023-04-28T16:06:11.133Z,49.53
2023-04-28T16:09:12.794Z,49.47
2023-04-28T16:12:14.346Z,49.52
2023-04-28T16:15:16.684Z,49.70
2023-04-28T16:18:18.328Z,49.62
2023-04-28T16:21:19.927Z,49.69
2023-04-28T16:24:22.653Z,49.69
2023-04-28T16:27:24.246Z,49.75
2023-04-28T16:30:26.681Z,49.80
2023-04-28T16:33:28.192Z,49.93
2023-04-28T16:36:33.117Z,49.90
2023-04-28T16:39:34.774Z,50.03
2023-04-28T16:42:36.497Z,50.25
2023-04-28T16:45:38.595Z,50.09
2023-04-28T16:48:40.506Z,50.01
2023-04-28T16:51:58.693Z,50.03
2023-04-28T16:55:00.556Z,50.13
2023-04-28T16:58:02.749Z,50.24
2023-04-28T17:01:04.368Z,50.21
2023-04-28T17:04:07.169Z,50.58
2023-04-28T17:07:08.856Z,50.49
2023-04-28T17:10:10.661Z,50.41
2023-04-28T17:13:12.235Z,50.58
2023-04-28T17:16:13.852Z,50.49
2023-04-28T17:19:15.683Z,50.63
2023-04-28T17:22:17.259Z,50.70
2023-04-28T17:25:19.097Z,50.70
2023-04-28T17:28:20.749Z,50.76
2023-04-28T17:31:22.872Z,50.86
2023-04-28T17:34:24.546Z,51.00
2023-04-28T17:37:26.327Z,50.96
2023-04-28T17:40:27.998Z,50.91
2023-04-28T17:43:30.947Z,51.11
2023-04-28T17:46:32.649Z,50.97
2023-04-28T17:49:34.323Z,50.97
2023-04-28T17:52:36.455Z,51.03
2023-04-28T17:55:38.227Z,51.24
2023-04-28T17:58:39.812Z,51.17
2023-04-28T18:01:41.498Z,51.17
2023-04-28T18:04:43.038Z,51.08
2023-04-28T18:07:44.626Z,50.98
2023-04-28T18:10:46.200Z,51.14
2023-04-28T18:13:47.881Z,51.22
2023-04-28T18:16:49.454Z,51.23
2023-04-28T18:19:52.340Z,51.35
2023-04-28T18:22:53.894Z,51.21
2023-04-28T18:25:55.555Z,51.58
2023-04-28T18:28:57.093Z,51.30
2023-04-28T18:31:58.743Z,51.31
2023-04-28T18:35:00.755Z,51.36
2023-04-28T18:38:03.042Z,51.30
2023-04-28T18:41:15.234Z,51.36
2023-04-28T18:44:17.332Z,51.43
2023-04-28T18:47:19.680Z,51.51
2023-04-28T18:50:21.416Z,51.38
2023-04-28T18:53:22.942Z,51.44
2023-04-28T18:56:24.554Z,51.60
2023-04-28T18:59:26.767Z,51.59
2023-04-28T19:02:28.486Z,51.61
2023-04-28T19:05:30.976Z,51.82
2023-04-28T19:08:32.531Z,51.80
2023-04-28T19:11:34.069Z,51.87
2023-04-28T19:14:36.134Z,51.92
2023-04-28T19:17:37.776Z,51.97
2023-04-28T19:20:39.678Z,51.92
2023-04-28T19:23:41.338Z,52.07
2023-04-28T19:26:42.899Z,51.96
2023-04-28T19:29:44.415Z,51.91
2023-04-28T19:32:46.063Z,51.94
2023-04-28T19:35:47.657Z,51.92
2023-04-28T19:38:49.205Z,52.01
2023-04-28T19:41:50.863Z,52.03
2023-04-28T19:44:57.240Z,51.76
2023-04-28T19:47:59.199Z,51.98
2023-04-28T19:51:01.002Z,52.09
2023-04-28T19:54:02.585Z,52.20
2023-04-28T19:57:04.251Z,52.09
2023-04-28T20:00:08.173Z,51.91
2023-04-28T20:03:09.813Z,52.06
2023-04-28T20:06:16.557Z,52.23
2023-04-28T20:09:18.104Z,52.34
2023-04-28T20:12:19.776Z,52.23
2023-04-28T20:15:21.378Z,52.50
2023-04-28T20:18:22.986Z,52.43
2023-04-28T20:21:26.519Z,52.54
2023-04-28T20:24:28.176Z,52.52
2023-04-28T20:27:29.735Z,52.60
2023-04-28T20:30:31.342Z,52.59
2023-04-28T20:33:32.894Z,52.60
2023-04-28T20:36:34.769Z,52.65
2023-04-28T20:39:36.367Z,52.68
2023-04-28T20:42:37.958Z,52.60
2023-04-28T20:45:41.892Z,52.53
2023-04-28T20:48:43.655Z,52.78
2023-04-28T20:51:48.057Z,52.73
2023-04-28T20:54:57.074Z,52.67
2023-04-28T20:57:58.618Z,52.69
2023-04-28T21:01:00.292Z,52.77
2023-04-28T21:04:02.059Z,52.93
2023-04-28T21:07:04.200Z,52.87
2023-04-28T21:10:06.722Z,52.96
2023-04-28T21:13:12.178Z,53.03
2023-04-28T21:16:21.006Z,52.88
2023-04-28T21:19:23.491Z,52.94
2023-04-28T21:22:25.109Z,53.02
2023-04-28T21:25:26.712Z,53.13
2023-04-28T21:28:28.573Z,53.05
2023-04-28T21:31:31.276Z,53.16
2023-04-28T21:34:33.428Z,53.04
2023-04-28T21:37:35.087Z,53.57
2023-04-28T21:40:37.166Z,53.35
2023-04-28T21:43:39.481Z,53.25
2023-04-28T21:46:41.112Z,53.06
2023-04-28T21:49:43.962Z,53.22
2023-04-28T21:52:45.527Z,53.07
2023-04-28T21:55:47.538Z,53.30
2023-04-28T21:58:49.145Z,53.21
2023-04-28T22:01:51.919Z,53.21
2023-04-28T22:04:54.282Z,53.16
2023-04-28T22:07:55.846Z,53.39
2023-04-28T22:10:57.853Z,53.24
2023-04-28T22:13:59.367Z,53.40
2023-04-28T22:17:00.976Z,53.32
2023-04-28T22:20:02.616Z,53.29
2023-04-28T22:23:04.654Z,53.14
2023-04-28T22:26:06.203Z,53.24
2023-04-28T22:29:07.872Z,53.38
2023-04-28T22:32:10.110Z,53.36
2023-04-28T22:35:12.725Z,53.40
2023-04-28T22:38:14.359Z,53.41
2023-04-28T22:41:16.122Z,53.51
2023-04-28T22:44:17.795Z,53.44
2023-04-28T22:47:19.532Z,53.51
2023-04-28T22:50:21.240Z,53.58
2023-04-28T22:53:22.794Z,53.51
2023-04-28T22:56:24.418Z,53.40
2023-04-28T22:59:26.639Z,53.55
2023-04-28T23:02:28.739Z,53.56
2023-04-28T23:05:30.619Z,53.66
2023-04-28T23:08:32.284Z,53.55
2023-04-28T23:11:33.857Z,53.71
2023-04-28T23:14:35.464Z,53.75
2023-04-28T23:17:37.446Z,53.91
2023-04-28T23:20:39.035Z,53.62
2023-04-28T23:23:40.988Z,53.79
2023-04-28T23:26:42.548Z,53.88
2023-04-28T23:29:44.119Z,53.83
2023-04-28T23:32:45.789Z,53.94
2023-04-28T23:35:47.385Z,53.93
2023-04-28T23:38:49.388Z,53.94
2023-04-28T23:41:51.226Z,54.07
2023-04-28T23:44:52.851Z,54.08
2023-04-28T23:47:54.459Z,54.03
2023-04-28T23:50:56.700Z,53.95
2023-04-28T23:53:58.502Z,54.11
2023-04-28T23:57:00.064Z,53.93
